sensor_id;sensor_type;location;lat;lon;timestamp;P1;durP1;ratioP1;P2;durP2;ratioP2
4597;SDS011;62772;48.646;8.906;2023-02-26T00:01:56;8.83;;;4.23;;
4597;SDS011;62772;48.646;8.906;2023-02-26T00:07:00;5.87;;;2.93;;
4597;SDS011;62772;48.646;8.906;2023-02-26T00:12:00;6.70;;;3.60;;
4597;SDS011;62772;48.646;8.906;2023-02-26T00:22:33;7.30;;;4.17;;
4597;SDS011;62772;48.646;8.906;2023-02-26T00:27:34;7.53;;;3.70;;
4597;SDS011;62772;48.646;8.906;2023-02-26T00:32:35;6.60;;;3.90;;
4597;SDS011;62772;48.646;8.906;2023-02-26T00:42:52;8.53;;;4.13;;
4597;SDS011;62772;48.646;8.906;2023-02-26T00:53:43;6.03;;;3.27;;
4597;SDS011;62772;48.646;8.906;2023-02-26T00:58:50;5.17;;;3.33;;
4597;SDS011;62772;48.646;8.906;2023-02-26T01:03:51;4.53;;;2.97;;
4597;SDS011;62772;48.646;8.906;2023-02-26T01:09:13;6.37;;;3.90;;
4597;SDS011;62772;48.646;8.906;2023-02-26T01:14:25;5.10;;;3.20;;
4597;SDS011;62772;48.646;8.906;2023-02-26T01:19:30;4.37;;;2.70;;
4597;SDS011;62772;48.646;8.906;2023-02-26T01:24:39;6.77;;;3.90;;
4597;SDS011;62772;48.646;8.906;2023-02-26T01:29:40;5.77;;;3.83;;
4597;SDS011;62772;48.646;8.906;2023-02-26T01:45:12;5.30;;;3.47;;
4597;SDS011;62772;48.646;8.906;2023-02-26T01:50:36;4.80;;;3.33;;
4597;SDS011;62772;48.646;8.906;2023-02-26T01:55:38;6.40;;;3.20;;
4597;SDS011;62772;48.646;8.906;2023-02-26T02:00:43;4.73;;;3.03;;
4597;SDS011;62772;48.646;8.906;2023-02-26T02:06:07;8.00;;;3.50;;
4597;SDS011;62772;48.646;8.906;2023-02-26T02:11:31;4.70;;;3.50;;
4597;SDS011;62772;48.646;8.906;2023-02-26T02:26:59;11.70;;;3.53;;
4597;SDS011;62772;48.646;8.906;2023-02-26T02:32:07;5.97;;;3.07;;
4597;SDS011;62772;48.646;8.906;2023-02-26T02:37:13;5.13;;;3.60;;
4597;SDS011;62772;48.646;8.906;2023-02-26T02:47:43;10.00;;;4.30;;
4597;SDS011;62772;48.646;8.906;2023-02-26T02:52:50;6.00;;;3.40;;
4597;SDS011;62772;48.646;8.906;2023-02-26T02:58:01;4.23;;;3.20;;
4597;SDS011;62772;48.646;8.906;2023-02-26T03:03:08;4.33;;;3.17;;
4597;SDS011;62772;48.646;8.906;2023-02-26T03:08:16;5.30;;;3.07;;
4597;SDS011;62772;48.646;8.906;2023-02-26T03:13:25;5.67;;;2.93;;
4597;SDS011;62772;48.646;8.906;2023-02-26T03:23:58;7.73;;;3.40;;
4597;SDS011;62772;48.646;8.906;2023-02-26T03:29:08;8.10;;;3.43;;
4597;SDS011;62772;48.646;8.906;2023-02-26T03:34:50;5.90;;;3.70;;
4597;SDS011;62772;48.646;8.906;2023-02-26T03:39:48;6.27;;;3.20;;
4597;SDS011;62772;48.646;8.906;2023-02-26T03:44:58;13.67;;;4.33;;
4597;SDS011;62772;48.646;8.906;2023-02-26T03:50:10;5.23;;;3.23;;
4597;SDS011;62772;48.646;8.906;2023-02-26T03:56:27;5.00;;;3.40;;
4597;SDS011;62772;48.646;8.906;2023-02-26T04:01:23;6.73;;;3.50;;
4597;SDS011;62772;48.646;8.906;2023-02-26T04:06:28;7.00;;;3.80;;
4597;SDS011;62772;48.646;8.906;2023-02-26T04:11:30;5.80;;;3.73;;
4597;SDS011;62772;48.646;8.906;2023-02-26T04:16:31;7.13;;;3.50;;
4597;SDS011;62772;48.646;8.906;2023-02-26T04:21:32;5.87;;;3.83;;
4597;SDS011;62772;48.646;8.906;2023-02-26T04:26:32;6.50;;;3.80;;
4597;SDS011;62772;48.646;8.906;2023-02-26T04:31:33;10.10;;;5.20;;
4597;SDS011;62772;48.646;8.906;2023-02-26T04:36:33;8.13;;;4.13;;
4597;SDS011;62772;48.646;8.906;2023-02-26T04:41:34;6.73;;;4.10;;
4597;SDS011;62772;48.646;8.906;2023-02-26T04:46:35;8.73;;;4.20;;
4597;SDS011;62772;48.646;8.906;2023-02-26T04:51:36;8.20;;;4.20;;
4597;SDS011;62772;48.646;8.906;2023-02-26T04:56:37;7.30;;;3.87;;
4597;SDS011;62772;48.646;8.906;2023-02-26T05:01:38;6.40;;;3.50;;
4597;SDS011;62772;48.646;8.906;2023-02-26T05:06:41;5.77;;;3.80;;
4597;SDS011;62772;48.646;8.906;2023-02-26T05:11:42;6.80;;;3.57;;
4597;SDS011;62772;48.646;8.906;2023-02-26T05:16:42;5.77;;;3.23;;
4597;SDS011;62772;48.646;8.906;2023-02-26T05:21:43;5.23;;;3.93;;
4597;SDS011;62772;48.646;8.906;2023-02-26T05:26:43;8.03;;;4.20;;
4597;SDS011;62772;48.646;8.906;2023-02-26T05:31:44;19.23;;;3.87;;
4597;SDS011;62772;48.646;8.906;2023-02-26T05:36:44;7.27;;;3.97;;
4597;SDS011;62772;48.646;8.906;2023-02-26T05:41:45;8.63;;;4.20;;
4597;SDS011;62772;48.646;8.906;2023-02-26T05:46:46;8.20;;;4.30;;
4597;SDS011;62772;48.646;8.906;2023-02-26T05:51:46;4.33;;;3.03;;
4597;SDS011;62772;48.646;8.906;2023-02-26T05:56:47;8.03;;;4.33;;
4597;SDS011;62772;48.646;8.906;2023-02-26T06:01:47;4.93;;;3.33;;
4597;SDS011;62772;48.646;8.906;2023-02-26T06:06:48;7.23;;;4.00;;
4597;SDS011;62772;48.646;8.906;2023-02-26T06:11:48;8.20;;;4.30;;
4597;SDS011;62772;48.646;8.906;2023-02-26T06:16:49;9.70;;;4.70;;
4597;SDS011;62772;48.646;8.906;2023-02-26T06:21:49;5.37;;;3.80;;
4597;SDS011;62772;48.646;8.906;2023-02-26T06:26:50;9.90;;;4.50;;
4597;SDS011;62772;48.646;8.906;2023-02-26T06:31:51;6.50;;;3.83;;
4597;SDS011;62772;48.646;8.906;2023-02-26T06:36:51;8.60;;;3.67;;
4597;SDS011;62772;48.646;8.906;2023-02-26T06:41:52;7.43;;;4.00;;
4597;SDS011;62772;48.646;8.906;2023-02-26T06:46:52;6.87;;;3.57;;
4597;SDS011;62772;48.646;8.906;2023-02-26T06:51:53;12.17;;;4.17;;
4597;SDS011;62772;48.646;8.906;2023-02-26T06:56:53;8.13;;;4.40;;
4597;SDS011;62772;48.646;8.906;2023-02-26T07:01:56;6.60;;;4.00;;
4597;SDS011;62772;48.646;8.906;2023-02-26T07:06:57;6.43;;;4.00;;
4597;SDS011;62772;48.646;8.906;2023-02-26T07:11:57;5.50;;;3.30;;
4597;SDS011;62772;48.646;8.906;2023-02-26T07:16:58;13.07;;;5.10;;
4597;SDS011;62772;48.646;8.906;2023-02-26T07:21:59;6.70;;;4.20;;
4597;SDS011;62772;48.646;8.906;2023-02-26T07:27:00;11.30;;;4.20;;
4597;SDS011;62772;48.646;8.906;2023-02-26T07:32:00;9.70;;;4.20;;
4597;SDS011;62772;48.646;8.906;2023-02-26T07:37:01;5.40;;;4.37;;
4597;SDS011;62772;48.646;8.906;2023-02-26T07:42:01;9.90;;;4.50;;
4597;SDS011;62772;48.646;8.906;2023-02-26T07:47:02;5.70;;;3.20;;
4597;SDS011;62772;48.646;8.906;2023-02-26T07:52:03;9.80;;;3.97;;
4597;SDS011;62772;48.646;8.906;2023-02-26T07:57:06;6.07;;;3.43;;
4597;SDS011;62772;48.646;8.906;2023-02-26T08:02:07;9.40;;;3.83;;
4597;SDS011;62772;48.646;8.906;2023-02-26T08:07:07;7.60;;;3.53;;
4597;SDS011;62772;48.646;8.906;2023-02-26T08:12:08;6.07;;;3.47;;
4597;SDS011;62772;48.646;8.906;2023-02-26T08:17:08;11.27;;;3.60;;
4597;SDS011;62772;48.646;8.906;2023-02-26T08:22:10;12.83;;;3.63;;
4597;SDS011;62772;48.646;8.906;2023-02-26T08:27:11;4.07;;;3.20;;
4597;SDS011;62772;48.646;8.906;2023-02-26T08:32:12;8.40;;;4.13;;
4597;SDS011;62772;48.646;8.906;2023-02-26T08:37:12;6.73;;;4.03;;
4597;SDS011;62772;48.646;8.906;2023-02-26T08:42:13;11.13;;;6.07;;
4597;SDS011;62772;48.646;8.906;2023-02-26T08:47:15;7.17;;;5.03;;
4597;SDS011;62772;48.646;8.906;2023-02-26T08:52:16;8.17;;;4.43;;
4597;SDS011;62772;48.646;8.906;2023-02-26T08:57:16;7.30;;;3.90;;
4597;SDS011;62772;48.646;8.906;2023-02-26T09:02:17;7.57;;;3.33;;
4597;SDS011;62772;48.646;8.906;2023-02-26T09:07:17;7.47;;;3.77;;
4597;SDS011;62772;48.646;8.906;2023-02-26T09:12:18;6.27;;;3.47;;
4597;SDS011;62772;48.646;8.906;2023-02-26T09:17:18;5.03;;;3.13;;
4597;SDS011;62772;48.646;8.906;2023-02-26T09:22:19;11.53;;;3.70;;
4597;SDS011;62772;48.646;8.906;2023-02-26T09:27:19;4.90;;;3.20;;
4597;SDS011;62772;48.646;8.906;2023-02-26T09:32:20;5.30;;;3.70;;
4597;SDS011;62772;48.646;8.906;2023-02-26T09:37:20;5.93;;;3.10;;
4597;SDS011;62772;48.646;8.906;2023-02-26T09:42:38;4.50;;;3.40;;
4597;SDS011;62772;48.646;8.906;2023-02-26T09:47:42;4.40;;;3.17;;
4597;SDS011;62772;48.646;8.906;2023-02-26T09:53:02;5.10;;;3.57;;
4597;SDS011;62772;48.646;8.906;2023-02-26T10:03:24;9.67;;;3.67;;
4597;SDS011;62772;48.646;8.906;2023-02-26T10:08:33;7.60;;;3.73;;
4597;SDS011;62772;48.646;8.906;2023-02-26T10:13:43;6.50;;;3.30;;
4597;SDS011;62772;48.646;8.906;2023-02-26T10:18:51;5.17;;;3.83;;
4597;SDS011;62772;48.646;8.906;2023-02-26T10:24:02;6.47;;;3.33;;
4597;SDS011;62772;48.646;8.906;2023-02-26T10:34:37;6.77;;;4.30;;
4597;SDS011;62772;48.646;8.906;2023-02-26T10:39:46;9.40;;;4.70;;
4597;SDS011;62772;48.646;8.906;2023-02-26T10:45:16;7.57;;;5.03;;
4597;SDS011;62772;48.646;8.906;2023-02-26T10:50:25;6.97;;;4.77;;
4597;SDS011;62772;48.646;8.906;2023-02-26T11:00:33;10.27;;;4.60;;
4597;SDS011;62772;48.646;8.906;2023-02-26T11:05:36;10.10;;;6.60;;
4597;SDS011;62772;48.646;8.906;2023-02-26T11:10:50;6.43;;;4.47;;
4597;SDS011;62772;48.646;8.906;2023-02-26T11:15:53;6.60;;;4.60;;
4597;SDS011;62772;48.646;8.906;2023-02-26T11:20:57;8.13;;;4.17;;
4597;SDS011;62772;48.646;8.906;2023-02-26T11:26:04;6.87;;;4.30;;
4597;SDS011;62772;48.646;8.906;2023-02-26T11:31:08;11.27;;;6.40;;
4597;SDS011;62772;48.646;8.906;2023-02-26T11:36:11;6.37;;;4.10;;
4597;SDS011;62772;48.646;8.906;2023-02-26T11:41:18;10.37;;;5.83;;
4597;SDS011;62772;48.646;8.906;2023-02-26T11:46:18;11.03;;;5.70;;
4597;SDS011;62772;48.646;8.906;2023-02-26T11:51:25;6.70;;;4.93;;
4597;SDS011;62772;48.646;8.906;2023-02-26T12:01:28;6.97;;;4.90;;
4597;SDS011;62772;48.646;8.906;2023-02-26T12:06:29;5.90;;;4.10;;
4597;SDS011;62772;48.646;8.906;2023-02-26T12:33:08;4.20;;;3.30;;
4597;SDS011;62772;48.646;8.906;2023-02-26T13:17:13;4.83;;;3.03;;
4597;SDS011;62772;48.646;8.906;2023-02-26T13:22:33;4.33;;;3.00;;
4597;SDS011;62772;48.646;8.906;2023-02-26T13:27:38;3.60;;;2.87;;
4597;SDS011;62772;48.646;8.906;2023-02-26T13:32:41;4.90;;;3.33;;
4597;SDS011;62772;48.646;8.906;2023-02-26T13:37:50;5.40;;;2.77;;
4597;SDS011;62772;48.646;8.906;2023-02-26T13:43:06;6.37;;;3.10;;
4597;SDS011;62772;48.646;8.906;2023-02-26T13:48:37;3.07;;;2.50;;
4597;SDS011;62772;48.646;8.906;2023-02-26T13:53:50;3.13;;;2.47;;
4597;SDS011;62772;48.646;8.906;2023-02-26T13:58:53;3.37;;;2.60;;
4597;SDS011;62772;48.646;8.906;2023-02-26T14:14:41;3.40;;;2.77;;
4597;SDS011;62772;48.646;8.906;2023-02-26T14:30:34;3.67;;;2.30;;
4597;SDS011;62772;48.646;8.906;2023-02-26T14:35:45;2.80;;;2.23;;
4597;SDS011;62772;48.646;8.906;2023-02-26T14:40:53;8.23;;;2.90;;
4597;SDS011;62772;48.646;8.906;2023-02-26T14:45:57;3.30;;;2.10;;
4597;SDS011;62772;48.646;8.906;2023-02-26T14:56:26;2.53;;;2.23;;
4597;SDS011;62772;48.646;8.906;2023-02-26T15:18:21;3.23;;;2.43;;
4597;SDS011;62772;48.646;8.906;2023-02-26T15:28:44;3.10;;;2.60;;
4597;SDS011;62772;48.646;8.906;2023-02-26T15:33:47;3.33;;;2.87;;
4597;SDS011;62772;48.646;8.906;2023-02-26T15:38:49;3.30;;;2.40;;
4597;SDS011;62772;48.646;8.906;2023-02-26T15:43:55;3.80;;;2.40;;
4597;SDS011;62772;48.646;8.906;2023-02-26T15:49:04;2.43;;;2.23;;
4597;SDS011;62772;48.646;8.906;2023-02-26T15:54:08;3.13;;;2.00;;
4597;SDS011;62772;48.646;8.906;2023-02-26T15:59:16;3.30;;;2.20;;
4597;SDS011;62772;48.646;8.906;2023-02-26T16:04:21;3.30;;;2.57;;
4597;SDS011;62772;48.646;8.906;2023-02-26T16:09:30;6.77;;;2.80;;
4597;SDS011;62772;48.646;8.906;2023-02-26T16:14:35;3.23;;;2.37;;
4597;SDS011;62772;48.646;8.906;2023-02-26T16:19:39;3.50;;;2.77;;
4597;SDS011;62772;48.646;8.906;2023-02-26T16:24:42;3.13;;;2.40;;
4597;SDS011;62772;48.646;8.906;2023-02-26T16:29:53;3.17;;;2.10;;
4597;SDS011;62772;48.646;8.906;2023-02-26T16:34:58;3.90;;;2.70;;
4597;SDS011;62772;48.646;8.906;2023-02-26T16:45:14;3.90;;;2.10;;
4597;SDS011;62772;48.646;8.906;2023-02-26T16:50:26;2.20;;;1.90;;
4597;SDS011;62772;48.646;8.906;2023-02-26T16:55:29;4.30;;;3.30;;
4597;SDS011;62772;48.646;8.906;2023-02-26T17:00:33;4.60;;;3.40;;
4597;SDS011;62772;48.646;8.906;2023-02-26T17:05:36;4.97;;;3.57;;
4597;SDS011;62772;48.646;8.906;2023-02-26T17:10:47;2.23;;;2.03;;
4597;SDS011;62772;48.646;8.906;2023-02-26T17:16:03;2.83;;;2.13;;
4597;SDS011;62772;48.646;8.906;2023-02-26T17:21:08;3.30;;;2.30;;
4597;SDS011;62772;48.646;8.906;2023-02-26T17:26:09;3.07;;;1.93;;
4597;SDS011;62772;48.646;8.906;2023-02-26T17:31:10;2.97;;;2.37;;
4597;SDS011;62772;48.646;8.906;2023-02-26T17:36:12;3.10;;;2.67;;
4597;SDS011;62772;48.646;8.906;2023-02-26T17:41:17;3.20;;;2.27;;
4597;SDS011;62772;48.646;8.906;2023-02-26T17:46:18;2.77;;;2.40;;
4597;SDS011;62772;48.646;8.906;2023-02-26T17:51:18;5.37;;;2.70;;
4597;SDS011;62772;48.646;8.906;2023-02-26T17:56:26;2.57;;;1.93;;
4597;SDS011;62772;48.646;8.906;2023-02-26T18:01:28;2.60;;;2.23;;
4597;SDS011;62772;48.646;8.906;2023-02-26T18:06:32;3.30;;;2.50;;
4597;SDS011;62772;48.646;8.906;2023-02-26T18:11:35;2.67;;;2.30;;
4597;SDS011;62772;48.646;8.906;2023-02-26T18:16:37;3.27;;;2.47;;
4597;SDS011;62772;48.646;8.906;2023-02-26T18:21:40;3.47;;;2.20;;
4597;SDS011;62772;48.646;8.906;2023-02-26T18:26:40;3.20;;;2.27;;
4597;SDS011;62772;48.646;8.906;2023-02-26T18:31:41;4.20;;;2.70;;
4597;SDS011;62772;48.646;8.906;2023-02-26T18:36:41;3.97;;;2.83;;
4597;SDS011;62772;48.646;8.906;2023-02-26T18:41:42;3.33;;;2.30;;
4597;SDS011;62772;48.646;8.906;2023-02-26T18:46:42;3.17;;;2.53;;
4597;SDS011;62772;48.646;8.906;2023-02-26T18:51:44;3.63;;;2.60;;
4597;SDS011;62772;48.646;8.906;2023-02-26T18:56:44;3.60;;;2.90;;
4597;SDS011;62772;48.646;8.906;2023-02-26T19:01:46;2.77;;;2.30;;
4597;SDS011;62772;48.646;8.906;2023-02-26T19:06:47;2.80;;;2.50;;
4597;SDS011;62772;48.646;8.906;2023-02-26T19:11:47;2.63;;;2.40;;
4597;SDS011;62772;48.646;8.906;2023-02-26T19:16:48;2.30;;;1.90;;
4597;SDS011;62772;48.646;8.906;2023-02-26T19:21:48;4.87;;;3.30;;
4597;SDS011;62772;48.646;8.906;2023-02-26T19:26:49;2.40;;;2.20;;
4597;SDS011;62772;48.646;8.906;2023-02-26T19:31:49;3.67;;;2.87;;
4597;SDS011;62772;48.646;8.906;2023-02-26T19:36:50;2.60;;;2.20;;
4597;SDS011;62772;48.646;8.906;2023-02-26T19:41:52;3.10;;;2.53;;
4597;SDS011;62772;48.646;8.906;2023-02-26T19:46:53;4.13;;;2.53;;
4597;SDS011;62772;48.646;8.906;2023-02-26T19:51:54;2.93;;;2.20;;
4597;SDS011;62772;48.646;8.906;2023-02-26T19:56:55;2.80;;;2.40;;
4597;SDS011;62772;48.646;8.906;2023-02-26T20:01:56;4.13;;;2.23;;
4597;SDS011;62772;48.646;8.906;2023-02-26T20:06:56;4.40;;;3.10;;
4597;SDS011;62772;48.646;8.906;2023-02-26T20:11:57;6.53;;;2.40;;
4597;SDS011;62772;48.646;8.906;2023-02-26T20:16:58;4.13;;;2.70;;
4597;SDS011;62772;48.646;8.906;2023-02-26T20:21:58;3.03;;;2.30;;
4597;SDS011;62772;48.646;8.906;2023-02-26T20:26:59;3.80;;;2.17;;
4597;SDS011;62772;48.646;8.906;2023-02-26T20:31:59;4.10;;;2.70;;
4597;SDS011;62772;48.646;8.906;2023-02-26T20:37:00;4.50;;;2.20;;
4597;SDS011;62772;48.646;8.906;2023-02-26T20:42:00;2.70;;;2.40;;
4597;SDS011;62772;48.646;8.906;2023-02-26T20:47:01;2.60;;;2.03;;
4597;SDS011;62772;48.646;8.906;2023-02-26T20:52:02;3.10;;;2.43;;
4597;SDS011;62772;48.646;8.906;2023-02-26T20:57:02;2.90;;;2.20;;
4597;SDS011;62772;48.646;8.906;2023-02-26T21:02:03;3.07;;;2.27;;
4597;SDS011;62772;48.646;8.906;2023-02-26T21:07:03;2.93;;;2.50;;
4597;SDS011;62772;48.646;8.906;2023-02-26T21:12:20;3.40;;;2.33;;
4597;SDS011;62772;48.646;8.906;2023-02-26T21:17:21;5.00;;;2.50;;
4597;SDS011;62772;48.646;8.906;2023-02-26T21:22:23;3.53;;;2.50;;
4597;SDS011;62772;48.646;8.906;2023-02-26T21:27:24;5.60;;;2.77;;
4597;SDS011;62772;48.646;8.906;2023-02-26T21:32:25;4.00;;;2.50;;
4597;SDS011;62772;48.646;8.906;2023-02-26T21:37:26;5.27;;;2.50;;
4597;SDS011;62772;48.646;8.906;2023-02-26T21:42:26;3.07;;;2.57;;
4597;SDS011;62772;48.646;8.906;2023-02-26T21:47:27;3.80;;;2.43;;
4597;SDS011;62772;48.646;8.906;2023-02-26T21:52:28;3.00;;;2.40;;
4597;SDS011;62772;48.646;8.906;2023-02-26T21:57:28;4.60;;;2.87;;
4597;SDS011;62772;48.646;8.906;2023-02-26T22:02:29;3.63;;;2.70;;
4597;SDS011;62772;48.646;8.906;2023-02-26T22:07:29;3.20;;;2.30;;
4597;SDS011;62772;48.646;8.906;2023-02-26T22:12:30;3.40;;;2.87;;
4597;SDS011;62772;48.646;8.906;2023-02-26T22:17:31;3.80;;;2.17;;
4597;SDS011;62772;48.646;8.906;2023-02-26T22:22:31;3.23;;;2.33;;
4597;SDS011;62772;48.646;8.906;2023-02-26T22:27:32;5.47;;;2.63;;
4597;SDS011;62772;48.646;8.906;2023-02-26T22:32:34;3.20;;;2.50;;
4597;SDS011;62772;48.646;8.906;2023-02-26T22:37:34;3.07;;;2.63;;
4597;SDS011;62772;48.646;8.906;2023-02-26T22:42:35;5.13;;;2.70;;
4597;SDS011;62772;48.646;8.906;2023-02-26T22:47:35;3.90;;;2.47;;
4597;SDS011;62772;48.646;8.906;2023-02-26T22:52:35;5.80;;;2.80;;
4597;SDS011;62772;48.646;8.906;2023-02-26T22:57:36;3.83;;;2.87;;
4597;SDS011;62772;48.646;8.906;2023-02-26T23:02:36;3.90;;;2.77;;
4597;SDS011;62772;48.646;8.906;2023-02-26T23:07:40;3.87;;;2.87;;
4597;SDS011;62772;48.646;8.906;2023-02-26T23:12:41;4.53;;;2.73;;
4597;SDS011;62772;48.646;8.906;2023-02-26T23:17:42;3.13;;;2.57;;
4597;SDS011;62772;48.646;8.906;2023-02-26T23:22:43;3.13;;;2.57;;
4597;SDS011;62772;48.646;8.906;2023-02-26T23:27:43;5.73;;;3.07;;
4597;SDS011;62772;48.646;8.906;2023-02-26T23:32:44;2.63;;;2.43;;
4597;SDS011;62772;48.646;8.906;2023-02-26T23:37:45;6.10;;;2.90;;
4597;SDS011;62772;48.646;8.906;2023-02-26T23:42:45;5.03;;;3.17;;
4597;SDS011;62772;48.646;8.906;2023-02-26T23:47:45;3.30;;;2.67;;
4597;SDS011;62772;48.646;8.906;2023-02-26T23:52:46;7.53;;;3.00;;
4597;SDS011;62772;48.646;8.906;2023-02-26T23:57:46;3.87;;;2.97;;
